Covington, Illinois
Current Conditions -  °F | °C
As of 7:35 AM on Friday 19 Dec 2014 (Local Time) from KENL Reporting Station
Haze Haze  
Wind Chill: 21°   Ceiling: Unl
Heat Index: 28°   Visibility: 4mi
Dew Point: 24°   Wind: 7mph
Humidity: 85%   Direction: 70°ENE
Pressure: 30.3"   Gusts: NA
Location:  38.4375°N, 89.4767°W
Report Text: KENL 191335Z AUTO 07006KT 4SM BR SCT040 M02/M04 A3030 RMK AO2 T10201042
Loading
Personal Weather Stations






























Interactive Weather Map New forecast layout! Learn more

10-Day Weather Forecast

Advertisements
Track Severe Weather on mobile